Yorktown, Iowa
Current Conditions -  °F | °C
As of 12:55 PM on Friday 31 Oct 2014 (Local Time) from KICL Reporting Station
Clear Clear  
Wind Chill: 35°   Ceiling: Unl
Heat Index: 41°   Visibility: 10mi
Dew Point: 16°   Wind: 10mph
Humidity: 36%   Direction: 340°NNW
Pressure: 30.54"   Gusts: NA
Location:  40.73°N, 95.16°W
Report Text: KICL 311755Z AUTO 34009KT 10SM CLR 05/M09 A3054 RMK AO2
Loading
Personal Weather Stations






























Interactive Weather Map New forecast layout! Learn more

10-Day Weather Forecast

Advertisements
Track Severe Weather on mobile